Time;durP1;ratioP1;P1;durP2;ratioP2;P2;SDS_P1;SDS_P2;PMS_P1;PMS_P2;Temp;Humidity;BMP_temperature;BMP_pressure;BME280_temperature;BME280_humidity;BME280_pressure;Samples;Min_cycle;Max_cycle;Signal;HPM_P1;HPM_P2
2021/06/25 00:02:13;;;;;;;29.10;5.72;;;26.40;70.60;;;;;;5050990;28;20029;-79
2021/06/25 00:04:39;;;;;;;24.30;5.60;;;26.30;70.80;;;;;;5051119;28;20032;-78
2021/06/25 00:07:04;;;;;;;21.73;5.30;;;26.30;71.30;;;;;;5052387;28;20415;-80
2021/06/25 00:09:30;;;;;;;36.45;6.10;;;26.30;71.50;;;;;;5052357;28;20029;-78
2021/06/25 00:11:56;;;;;;;34.30;6.30;;;26.30;71.80;;;;;;5052312;28;20109;-79
2021/06/25 00:14:22;;;;;;;40.17;6.28;;;26.20;71.90;;;;;;5050990;28;20037;-79
2021/06/25 00:16:50;;;;;;;27.73;6.03;;;26.20;72.10;;;;;;5051129;28;20086;-80
2021/06/25 00:19:16;;;;;;;22.88;6.13;;;26.20;72.10;;;;;;5050861;28;20021;-79
2021/06/25 00:21:41;;;;;;;25.60;6.00;;;26.20;72.40;;;;;;5050806;28;20032;-79
2021/06/25 00:24:07;;;;;;;40.33;5.55;;;26.20;72.80;;;;;;5050963;28;20025;-79
2021/06/25 00:26:33;;;;;;;27.52;5.53;;;26.20;73.20;;;;;;5052043;28;20109;-79
2021/06/25 00:28:59;;;;;;;42.42;6.53;;;26.20;73.40;;;;;;5052377;28;20114;-78
2021/06/25 00:31:24;;;;;;;39.42;6.82;;;26.10;73.80;;;;;;5053987;28;20119;-79
2021/06/25 00:33:50;;;;;;;25.83;5.53;;;26.10;73.80;;;;;;5053874;28;20036;-79
2021/06/25 00:36:15;;;;;;;20.80;5.40;;;26.10;74.30;;;;;;5053920;28;20506;-80
2021/06/25 00:38:41;;;;;;;28.50;5.93;;;26.00;74.30;;;;;;5053830;28;20032;-79
2021/06/25 00:41:07;;;;;;;24.60;5.57;;;26.00;74.40;;;;;;5053793;28;20660;-79
2021/06/25 00:43:33;;;;;;;30.15;5.70;;;26.00;74.30;;;;;;5053818;28;20024;-78
2021/06/25 00:45:59;;;;;;;26.05;5.93;;;26.00;74.50;;;;;;5053752;28;20044;-78
2021/06/25 00:48:24;;;;;;;33.85;6.20;;;26.00;74.50;;;;;;5071523;28;20047;-78
2021/06/25 00:50:50;;;;;;;39.63;6.45;;;26.00;74.90;;;;;;5071328;28;20037;-79
2021/06/25 00:53:16;;;;;;;32.90;6.38;;;25.90;75.20;;;;;;5071385;28;20077;-79
2021/06/25 00:55:42;;;;;;;33.15;6.50;;;25.90;75.30;;;;;;5053284;28;20024;-79
2021/06/25 00:58:17;;;;;;;31.55;5.90;;;25.90;75.00;;;;;;5053453;28;20120;-78
2021/06/25 01:00:43;;;;;;;25.98;5.28;;;25.80;75.20;;;;;;5071335;28;20025;-79
2021/06/25 01:03:10;;;;;;;29.00;6.00;;;25.80;75.40;;;;;;5053236;28;20060;-79
2021/06/25 01:05:36;;;;;;;33.35;7.03;;;25.70;75.50;;;;;;5071184;28;20024;-78
2021/06/25 01:08:04;;;;;;;31.85;7.03;;;25.70;75.80;;;;;;5071235;28;20032;-78
2021/06/25 01:10:30;;;;;;;27.25;5.72;;;25.60;76.10;;;;;;5071191;28;20041;-78
2021/06/25 01:12:56;;;;;;;35.45;6.93;;;25.60;76.70;;;;;;5070993;28;20389;-79
2021/06/25 01:15:22;;;;;;;25.92;5.97;;;25.50;76.90;;;;;;5053112;28;20115;-78
2021/06/25 01:17:47;;;;;;;34.60;6.95;;;25.50;77.10;;;;;;5053028;28;20461;-79
2021/06/25 01:20:22;;;;;;;32.28;7.65;;;25.50;77.10;;;;;;5052735;28;20017;-78
2021/06/25 01:22:47;;;;;;;31.55;6.88;;;25.50;78.10;;;;;;5052418;28;20497;-77
2021/06/25 01:25:13;;;;;;;26.85;7.10;;;25.40;77.90;;;;;;5052817;28;20016;-77
2021/06/25 01:27:39;;;;;;;34.50;6.60;;;25.40;78.10;;;;;;5070880;28;20056;-79
2021/06/25 01:30:15;;;;;;;34.38;7.15;;;25.40;78.20;;;;;;5070536;28;20037;-78
2021/06/25 01:32:42;;;;;;;31.15;6.57;;;25.40;78.30;;;;;;5052939;28;20032;-83
2021/06/25 01:35:09;;;;;;;36.20;7.10;;;25.30;78.50;;;;;;5070604;28;20033;-78
2021/06/25 01:37:35;;;;;;;41.60;7.75;;;25.30;78.70;;;;;;5053641;28;20393;-78
2021/06/25 01:40:01;;;;;;;30.85;6.28;;;25.30;79.20;;;;;;5070400;28;20021;-80
2021/06/25 01:42:31;;;;;;;55.35;7.22;;;25.20;79.10;;;;;;5052624;28;20496;-78
2021/06/25 01:44:57;;;;;;;36.95;7.50;;;25.20;79.20;;;;;;5052417;28;20029;-80
2021/06/25 01:47:23;;;;;;;35.38;6.50;;;25.20;79.20;;;;;;5052509;28;20082;-79
2021/06/25 01:49:48;;;;;;;44.75;8.05;;;25.20;79.10;;;;;;5052264;28;20036;-78
2021/06/25 01:52:18;;;;;;;25.38;6.82;;;25.10;79.10;;;;;;5052162;28;20493;-79
2021/06/25 01:54:44;;;;;;;35.45;6.35;;;25.10;79.30;;;;;;5052468;28;20078;-78
2021/06/25 01:57:10;;;;;;;36.28;6.47;;;25.10;79.30;;;;;;5052255;28;20361;-78
2021/06/25 01:59:36;;;;;;;30.33;7.07;;;25.10;79.40;;;;;;5070037;28;20024;-78
2021/06/25 02:02:02;;;;;;;19.13;5.60;;;25.00;79.40;;;;;;5070145;28;20028;-79
2021/06/25 02:04:27;;;;;;;38.50;7.55;;;25.00;79.40;;;;;;5052135;28;20111;-79
2021/06/25 02:06:53;;;;;;;42.58;6.93;;;25.00;80.10;;;;;;5052048;28;20025;-78
2021/06/25 02:09:18;;;;;;;35.10;7.40;;;25.00;79.50;;;;;;5051813;28;20035;-78
2021/06/25 02:11:44;;;;;;;33.30;6.72;;;25.00;79.50;;;;;;5069820;28;20040;-79
2021/06/25 02:14:10;;;;;;;26.05;6.32;;;25.00;79.70;;;;;;5052040;28;20453;-79
2021/06/25 02:16:35;;;;;;;25.48;6.10;;;24.90;79.80;;;;;;5069936;28;20032;-79
2021/06/25 02:19:01;;;;;;;28.40;5.93;;;24.90;80.20;;;;;;5069718;28;20393;-77
2021/06/25 02:21:27;;;;;;;42.22;8.98;;;24.90;80.20;;;;;;5069711;28;20472;-77
2021/06/25 02:23:54;;;;;;;30.13;6.43;;;24.80;80.10;;;;;;5069924;28;20086;-79
2021/06/25 02:26:19;;;;;;;35.35;8.02;;;24.80;79.90;;;;;;5051297;28;20203;-78
2021/06/25 02:28:45;;;;;;;36.90;7.47;;;24.80;79.70;;;;;;5061613;28;20032;-78
2021/06/25 02:31:11;;;;;;;35.92;7.45;;;24.70;79.70;;;;;;5042544;28;20051;-78
2021/06/25 02:33:36;;;;;;;36.50;6.40;;;24.70;79.80;;;;;;5069593;28;20497;-79
2021/06/25 02:36:02;;;;;;;49.67;7.63;;;24.70;79.60;;;;;;5068860;28;20500;-80
2021/06/25 02:38:28;;;;;;;28.42;6.03;;;24.70;79.40;;;;;;5066885;28;20029;-79
2021/06/25 02:40:53;;;;;;;42.05;9.20;;;24.70;79.40;;;;;;5048173;28;20037;-78
2021/06/25 02:43:19;;;;;;;31.30;6.60;;;24.70;79.70;;;;;;5031668;28;20036;-79
2021/06/25 02:45:45;;;;;;;28.48;6.20;;;24.70;79.90;;;;;;5031731;28;20044;-79
2021/06/25 02:48:11;;;;;;;37.75;7.05;;;24.60;79.90;;;;;;5031545;28;20029;-78
2021/06/25 02:50:36;;;;;;;39.17;9.68;;;24.60;79.90;;;;;;5048107;28;20095;-78
2021/06/25 02:53:02;;;;;;;43.92;7.95;;;24.60;80.00;;;;;;5049184;28;20086;-79
2021/06/25 02:55:27;;;;;;;35.28;8.07;;;24.60;79.90;;;;;;5031820;28;20406;-79
2021/06/25 02:57:53;;;;;;;35.25;7.68;;;24.60;79.90;;;;;;5031003;28;20071;-78
2021/06/25 03:00:20;;;;;;;42.75;7.70;;;24.50;79.80;;;;;;5049348;28;20029;-79
2021/06/25 03:02:45;;;;;;;41.58;8.90;;;24.50;79.70;;;;;;5049145;28;20489;-78
2021/06/25 03:05:13;;;;;;;32.92;6.70;;;24.60;79.50;;;;;;5049299;28;20079;-80
2021/06/25 03:07:40;;;;;;;26.13;5.70;;;24.50;79.50;;;;;;5047874;28;20025;-78
2021/06/25 03:10:07;;;;;;;36.90;6.57;;;24.60;79.40;;;;;;5031580;28;20543;-79
2021/06/25 03:12:33;;;;;;;38.50;7.00;;;24.60;79.30;;;;;;5047759;28;20082;-78
2021/06/25 03:14:59;;;;;;;40.13;7.65;;;24.60;79.20;;;;;;5049215;28;20040;-79
2021/06/25 03:17:25;;;;;;;35.50;6.80;;;24.60;79.20;;;;;;5049120;28;20024;-79
2021/06/25 03:19:51;;;;;;;42.83;7.82;;;24.60;79.10;;;;;;5048980;28;20029;-80
2021/06/25 03:22:17;;;;;;;43.05;6.88;;;24.70;78.90;;;;;;5048991;28;20069;-80
2021/06/25 03:24:43;;;;;;;39.15;8.65;;;24.70;78.50;;;;;;5047808;28;20024;-80
2021/06/25 03:27:09;;;;;;;43.28;6.40;;;24.70;78.40;;;;;;5049016;28;20496;-80
2021/06/25 03:29:35;;;;;;;51.35;8.20;;;24.70;78.20;;;;;;5031145;28;20053;-80
2021/06/25 03:32:01;;;;;;;37.28;6.72;;;24.70;78.00;;;;;;5048904;28;20048;-80
2021/06/25 03:34:27;;;;;;;43.97;8.25;;;24.70;77.70;;;;;;5049068;28;20082;-80
2021/06/25 03:36:53;;;;;;;37.70;7.35;;;24.70;77.80;;;;;;5049010;28;20032;-80
2021/06/25 03:39:19;;;;;;;36.70;6.60;;;24.70;77.90;;;;;;5049180;28;20025;-80
2021/06/25 03:41:44;;;;;;;46.00;7.68;;;24.70;77.90;;;;;;5047552;28;20033;-80
2021/06/25 03:44:10;;;;;;;38.53;7.35;;;24.70;78.10;;;;;;5031038;28;20060;-80
2021/06/25 03:46:36;;;;;;;42.22;6.40;;;24.70;78.60;;;;;;5050549;28;20029;-80
2021/06/25 03:49:02;;;;;;;35.35;7.82;;;24.60;78.50;;;;;;5034756;28;20646;-80
2021/06/25 03:51:27;;;;;;;43.58;7.70;;;24.60;78.50;;;;;;5034625;28;20071;-80
2021/06/25 03:53:53;;;;;;;46.75;7.20;;;24.70;78.50;;;;;;5052649;28;20032;-79
2021/06/25 03:56:19;;;;;;;37.58;7.53;;;24.70;78.80;;;;;;5034530;28;20485;-80
2021/06/25 03:58:46;;;;;;;27.02;6.97;;;24.80;79.20;;;;;;5052613;28;20029;-81
2021/06/25 04:01:12;;;;;;;39.42;7.38;;;24.90;79.10;;;;;;5034741;28;20029;-80
2021/06/25 04:03:39;;;;;;;49.80;9.18;;;25.00;78.90;;;;;;5052197;28;20029;-80
2021/06/25 04:06:05;;;;;;;40.00;7.22;;;25.10;78.60;;;;;;5052514;28;20029;-78
2021/06/25 04:08:32;;;;;;;42.45;7.22;;;25.20;78.50;;;;;;5051020;28;20025;-78
2021/06/25 04:10:59;;;;;;;46.13;7.88;;;25.30;77.70;;;;;;5034432;28;20480;-79
2021/06/25 04:13:26;;;;;;;40.17;6.05;;;25.50;77.00;;;;;;5052416;28;20025;-79
2021/06/25 04:15:53;;;;;;;36.97;6.70;;;25.60;76.60;;;;;;5034215;28;20025;-79
2021/06/25 04:18:19;;;;;;;36.42;7.97;;;25.80;76.00;;;;;;5051937;28;20029;-78
2021/06/25 04:20:45;;;;;;;44.30;7.80;;;26.00;75.50;;;;;;5052273;28;20036;-79
2021/06/25 04:23:12;;;;;;;38.72;6.95;;;26.30;74.30;;;;;;5052156;28;20512;-78
2021/06/25 04:25:38;;;;;;;33.95;7.00;;;26.50;74.00;;;;;;5052064;28;20059;-79
2021/06/25 04:28:04;;;;;;;44.78;7.82;;;26.70;74.00;;;;;;5050687;28;20445;-78
2021/06/25 04:30:30;;;;;;;31.05;7.15;;;26.80;73.30;;;;;;5051804;28;20049;-78
2021/06/25 04:33:00;;;;;;;40.42;7.40;;;26.90;73.70;;;;;;5051737;28;20032;-78
2021/06/25 04:35:29;;;;;;;28.95;6.93;;;27.10;73.20;;;;;;5033996;28;20024;-78
2021/06/25 04:37:55;;;;;;;44.38;8.55;;;27.10;73.70;;;;;;5050498;28;20033;-79
2021/06/25 04:40:21;;;;;;;33.28;7.55;;;27.10;74.20;;;;;;5033848;28;20521;-79
2021/06/25 04:42:47;;;;;;;23.20;7.47;;;27.00;74.50;;;;;;5051601;28;20033;-78
2021/06/25 04:45:14;;;;;;;42.97;8.40;;;27.10;74.80;;;;;;5033764;28;20053;-79
2021/06/25 04:47:44;;;;;;;26.13;6.38;;;27.10;74.70;;;;;;5051425;28;20060;-78
2021/06/25 04:50:10;;;;;;;37.42;7.10;;;27.30;74.00;;;;;;5033659;28;20249;-78
2021/06/25 04:52:36;;;;;;;29.98;6.45;;;27.40;73.30;;;;;;5051101;28;20036;-78
2021/06/25 04:55:02;;;;;;;34.17;7.43;;;27.60;72.20;;;;;;5033674;28;20032;-78
2021/06/25 04:57:28;;;;;;;21.50;6.15;;;27.70;71.10;;;;;;5033083;28;20041;-78
2021/06/25 04:59:54;;;;;;;24.23;6.60;;;27.80;70.40;;;;;;5033460;28;20524;-79
2021/06/25 05:02:19;;;;;;;36.30;7.45;;;27.90;70.40;;;;;;5051338;28;20116;-78
2021/06/25 05:04:45;;;;;;;46.33;7.78;;;28.10;70.50;;;;;;5033342;28;20032;-78
2021/06/25 05:07:11;;;;;;;41.35;7.50;;;28.30;69.90;;;;;;5033154;28;20068;-81
2021/06/25 05:09:36;;;;;;;30.25;5.75;;;28.40;68.90;;;;;;5033338;28;20087;-81
2021/06/25 05:12:02;;;;;;;42.97;8.98;;;28.50;68.30;;;;;;5033029;28;20048;-80
2021/06/25 05:14:28;;;;;;;40.35;7.00;;;28.70;67.80;;;;;;5033163;28;20029;-81
2021/06/25 05:16:53;;;;;;;28.20;7.07;;;28.80;67.80;;;;;;5051022;28;20029;-81
2021/06/25 05:19:20;;;;;;;32.47;6.82;;;28.90;67.30;;;;;;5050976;28;20150;-81
2021/06/25 05:21:45;;;;;;;25.20;7.05;;;29.10;67.30;;;;;;5032868;28;20112;-80
2021/06/25 05:24:11;;;;;;;41.03;7.85;;;29.20;67.10;;;;;;5050729;28;20178;-80
2021/06/25 05:26:36;;;;;;;52.00;9.27;;;29.40;66.60;;;;;;5050881;28;20493;-80
2021/06/25 05:29:03;;;;;;;46.53;8.73;;;29.40;66.90;;;;;;5032602;28;20054;-80
2021/06/25 05:31:29;;;;;;;46.58;6.85;;;29.40;66.40;;;;;;5050496;28;20037;-80
2021/06/25 05:33:55;;;;;;;28.75;6.43;;;29.50;66.60;;;;;;5050592;28;20150;-81
2021/06/25 05:36:20;;;;;;;42.38;7.72;;;29.50;65.80;;;;;;5050497;28;20532;-81
2021/06/25 05:38:46;;;;;;;35.85;9.07;;;29.60;65.20;;;;;;5050589;28;20040;-80
2021/06/25 05:41:12;;;;;;;62.13;8.75;;;29.70;64.90;;;;;;5050393;28;20405;-81
2021/06/25 05:43:38;;;;;;;37.05;7.82;;;29.90;64.10;;;;;;5049101;28;20033;-78
2021/06/25 05:46:04;;;;;;;37.63;7.50;;;29.90;63.20;;;;;;5050474;28;20473;-78
2021/06/25 05:48:29;;;;;;;39.78;7.20;;;30.00;63.00;;;;;;5032469;28;20036;-79
2021/06/25 05:50:55;;;;;;;44.40;7.80;;;30.30;62.90;;;;;;5032449;28;20095;-79
2021/06/25 05:53:21;;;;;;;45.42;9.18;;;30.60;61.00;;;;;;5050528;28;20033;-79
2021/06/25 05:55:46;;;;;;;45.47;6.75;;;30.90;60.10;;;;;;5032415;28;20470;-79
2021/06/25 05:58:12;;;;;;;35.65;5.93;;;31.70;58.20;;;;;;5050060;28;20035;-79
2021/06/25 06:00:38;;;;;;;34.85;4.78;;;32.80;53.40;;;;;;5032234;28;20478;-79
2021/06/25 06:03:04;;;;;;;26.00;5.20;;;34.20;50.00;;;;;;5050146;28;20105;-79
2021/06/25 06:05:30;;;;;;;32.30;6.22;;;35.40;45.40;;;;;;5050161;28;20036;-80
2021/06/25 06:07:56;;;;;;;27.35;4.90;;;36.10;43.00;;;;;;5050070;28;20391;-79
2021/06/25 06:10:21;;;;;;;44.35;5.45;;;36.80;41.70;;;;;;5050258;28;20035;-79
2021/06/25 06:12:48;;;;;;;37.28;5.80;;;37.00;40.80;;;;;;5032081;28;20051;-80
2021/06/25 06:15:15;;;;;;;23.67;4.55;;;37.70;39.50;;;;;;5031851;28;20075;-78
2021/06/25 06:17:43;;;;;;;66.10;7.88;;;37.80;39.10;;;;;;5049924;28;20443;-79
2021/06/25 06:20:14;;;;;;;42.70;6.07;;;38.10;37.70;;;;;;5049900;28;20025;-78
2021/06/25 06:31:12;;;;;;;34.50;6.90;;;39.30;38.30;;;;;;5049438;28;20059;-79
2021/06/25 06:33:46;;;;;;;42.58;7.95;;;40.00;37.30;;;;;;5031674;28;20021;-82
2021/06/25 06:36:34;;;;;;;35.78;7.80;;;40.50;36.40;;;;;;5049643;28;20370;-81
2021/06/25 06:39:03;;;;;;;42.58;8.15;;;41.10;35.00;;;;;;5031641;28;20043;-82
2021/06/25 06:41:29;;;;;;;34.22;7.45;;;41.50;33.70;;;;;;5049561;28;20078;-81
2021/06/25 06:43:56;;;;;;;32.15;6.55;;;41.10;33.70;;;;;;5031653;28;20017;-80
2021/06/25 06:46:22;;;;;;;28.25;6.40;;;40.90;34.00;;;;;;5031568;28;20057;-80
2021/06/25 06:48:47;;;;;;;40.47;6.07;;;40.70;34.00;;;;;;5049529;28;20065;-81
2021/06/25 06:51:15;;;;;;;25.77;5.43;;;41.00;34.30;;;;;;5031327;28;20041;-81
2021/06/25 06:53:43;;;;;;;31.15;7.25;;;40.80;34.40;;;;;;5031395;28;20029;-80
2021/06/25 06:56:10;;;;;;;25.17;5.30;;;41.10;34.40;;;;;;5049479;28;20112;-82
2021/06/25 06:58:37;;;;;;;27.27;5.95;;;41.60;33.50;;;;;;5031359;28;20021;-81
2021/06/25 07:01:03;;;;;;;25.67;6.40;;;41.70;33.20;;;;;;5031348;28;20112;-81
2021/06/25 07:03:28;;;;;;;35.35;7.05;;;41.60;33.30;;;;;;5031408;28;20032;-81
2021/06/25 07:05:54;;;;;;;25.50;7.03;;;41.60;32.80;;;;;;5031402;28;20029;-81
2021/06/25 07:08:20;;;;;;;40.83;6.90;;;41.80;32.80;;;;;;5031476;28;20056;-80
2021/06/25 07:10:45;;;;;;;26.80;7.50;;;41.90;32.60;;;;;;5031121;28;20494;-80
2021/06/25 07:13:12;;;;;;;25.33;5.45;;;41.80;32.00;;;;;;5031135;28;20029;-81
2021/06/25 07:15:38;;;;;;;19.75;6.18;;;41.60;32.60;;;;;;5031099;28;20025;-81
2021/06/25 07:18:04;;;;;;;17.95;5.10;;;41.80;32.40;;;;;;5049161;28;20100;-81
2021/06/25 07:20:30;;;;;;;35.63;4.93;;;42.00;32.50;;;;;;5048964;28;20041;-80
2021/06/25 07:22:56;;;;;;;32.60;6.25;;;42.30;32.10;;;;;;5035003;28;20433;-81
2021/06/25 07:25:21;;;;;;;21.23;5.13;;;42.20;31.70;;;;;;5053174;28;20068;-81
2021/06/25 07:27:47;;;;;;;28.65;7.28;;;42.30;32.00;;;;;;5035171;28;20078;-81
2021/06/25 07:30:13;;;;;;;38.10;7.10;;;42.30;31.90;;;;;;5034954;28;20453;-80
2021/06/25 07:32:39;;;;;;;27.42;5.70;;;42.40;31.00;;;;;;5052876;28;20513;-81
2021/06/25 07:35:06;;;;;;;33.72;6.22;;;42.20;31.80;;;;;;5052947;28;20053;-81
2021/06/25 07:37:32;;;;;;;32.42;6.60;;;42.00;32.00;;;;;;5035188;28;20107;-81
2021/06/25 07:39:57;;;;;;;35.97;7.35;;;41.50;33.30;;;;;;5051585;28;20444;-81
2021/06/25 07:42:25;;;;;;;29.85;5.90;;;41.50;33.60;;;;;;5034791;28;20095;-81
2021/06/25 07:44:51;;;;;;;32.70;6.50;;;41.70;33.50;;;;;;5034849;28;20031;-81
2021/06/25 07:47:17;;;;;;;26.02;6.28;;;41.80;33.40;;;;;;5052769;28;20029;-81
2021/06/25 07:49:44;;;;;;;30.80;7.25;;;41.80;33.50;;;;;;5052589;28;20504;-82
2021/06/25 07:52:10;;;;;;;30.70;7.25;;;41.90;32.90;;;;;;5052562;28;20513;-80
2021/06/25 07:54:37;;;;;;;35.83;6.63;;;41.40;32.70;;;;;;5051303;28;20025;-81
2021/06/25 07:57:03;;;;;;;32.65;8.23;;;41.20;34.00;;;;;;5034519;28;20032;-81
2021/06/25 07:59:29;;;;;;;34.30;7.28;;;41.20;34.10;;;;;;5052533;28;20029;-82
2021/06/25 08:01:55;;;;;;;28.85;7.72;;;41.60;34.00;;;;;;5052313;28;20075;-81
2021/06/25 08:04:21;;;;;;;38.10;8.10;;;41.60;33.70;;;;;;5034371;28;20033;-81
2021/06/25 08:06:47;;;;;;;33.08;8.52;;;41.60;34.20;;;;;;5034422;28;20025;-81
2021/06/25 08:09:12;;;;;;;46.20;9.55;;;41.80;34.20;;;;;;5052181;28;20025;-82
2021/06/25 08:11:38;;;;;;;40.33;8.85;;;41.50;34.70;;;;;;5034001;28;20037;-80
2021/06/25 08:14:06;;;;;;;37.63;8.02;;;41.20;34.80;;;;;;5034389;28;20421;-81
2021/06/25 08:16:31;;;;;;;26.60;7.95;;;41.10;35.10;;;;;;5052126;28;20057;-81
2021/06/25 08:18:57;;;;;;;42.75;8.85;;;41.20;35.10;;;;;;5052019;28;20056;-81
2021/06/25 08:21:25;;;;;;;42.10;7.93;;;41.40;35.50;;;;;;5052082;28;20036;-80
2021/06/25 08:23:51;;;;;;;42.72;8.25;;;41.50;35.10;;;;;;5034179;28;20033;-80
2021/06/25 08:26:17;;;;;;;33.67;7.75;;;41.80;34.50;;;;;;5052096;28;20021;-81
2021/06/25 08:28:42;;;;;;;43.78;7.00;;;41.70;34.30;;;;;;5051760;28;20104;-81
2021/06/25 08:31:08;;;;;;;28.23;7.72;;;41.70;33.80;;;;;;5033637;28;20049;-81
2021/06/25 08:33:34;;;;;;;40.05;7.93;;;41.70;33.80;;;;;;5032748;28;20075;-81
2021/06/25 08:35:59;;;;;;;41.92;9.05;;;41.70;33.10;;;;;;5051918;28;20294;-81
2021/06/25 08:38:25;;;;;;;37.05;7.30;;;41.50;33.30;;;;;;5051806;28;20108;-81
2021/06/25 08:40:51;;;;;;;32.63;7.97;;;41.50;33.40;;;;;;5033950;28;20116;-80
2021/06/25 08:43:17;;;;;;;34.35;7.03;;;41.30;33.40;;;;;;5033655;28;20036;-81
2021/06/25 08:45:44;;;;;;;35.15;8.20;;;41.10;34.30;;;;;;5051646;28;20461;-81
2021/06/25 08:48:11;;;;;;;30.92;6.88;;;41.10;35.30;;;;;;5033902;28;20040;-81
2021/06/25 08:50:39;;;;;;;28.25;7.50;;;41.40;35.30;;;;;;5033462;28;20497;-81
2021/06/25 08:53:06;;;;;;;28.50;7.30;;;41.60;35.40;;;;;;5051540;28;20056;-81
2021/06/25 08:55:31;;;;;;;32.45;7.38;;;41.60;35.90;;;;;;5051331;28;20032;-81
2021/06/25 08:57:57;;;;;;;34.05;7.10;;;41.50;35.80;;;;;;5033625;28;20029;-80
2021/06/25 09:00:23;;;;;;;35.25;8.38;;;41.30;36.20;;;;;;5051309;28;20021;-80
2021/06/25 09:02:49;;;;;;;31.40;6.97;;;41.30;36.50;;;;;;5051188;28;20025;-80
2021/06/25 09:05:20;;;;;;;25.00;6.70;;;40.90;37.50;;;;;;5033361;28;20032;-80
2021/06/25 09:07:46;;;;;;;22.75;6.68;;;41.20;37.50;;;;;;5051128;28;20698;-81
2021/06/25 09:10:13;;;;;;;25.20;7.32;;;41.50;36.20;;;;;;5049739;28;20033;-80
2021/06/25 09:12:39;;;;;;;23.05;6.50;;;41.20;36.10;;;;;;5050980;28;20128;-81
2021/06/25 09:15:17;;;;;;;26.75;6.32;;;41.30;36.40;;;;;;5050779;28;20463;-80
2021/06/25 09:17:58;;;;;;;21.45;6.10;;;41.10;35.60;;;;;;5033200;28;20505;-80
2021/06/25 09:20:41;;;;;;;26.92;6.65;;;40.70;36.30;;;;;;5032937;28;20049;-81
2021/06/25 09:23:15;;;;;;;22.33;7.05;;;40.90;36.90;;;;;;5032750;28;20380;-80
2021/06/25 09:26:06;;;;;;;29.23;6.80;;;41.00;36.90;;;;;;5050904;28;20025;-80
2021/06/25 09:28:43;;;;;;;21.92;6.78;;;41.20;36.40;;;;;;5050751;28;20025;-81
2021/06/25 09:31:17;;;;;;;22.52;6.45;;;41.30;36.30;;;;;;5049203;28;20549;-80
2021/06/25 09:33:48;;;;;;;25.50;6.53;;;41.30;36.50;;;;;;5050683;28;20028;-80
2021/06/25 09:36:30;;;;;;;22.60;6.10;;;41.50;36.50;;;;;;5032586;28;20087;-80
2021/06/25 09:39:12;;;;;;;23.08;5.60;;;41.40;35.90;;;;;;5050568;28;20520;-80
2021/06/25 09:41:40;;;;;;;22.10;5.57;;;41.20;36.00;;;;;;5032500;28;20021;-80
2021/06/25 09:44:11;;;;;;;14.40;5.18;;;41.00;36.30;;;;;;5050395;28;20036;-81
2021/06/25 09:46:42;;;;;;;18.60;4.88;;;40.70;37.10;;;;;;5050622;28;20025;-80
2021/06/25 09:49:09;;;;;;;29.17;5.95;;;40.70;36.80;;;;;;5050431;28;20489;-80
2021/06/25 09:51:36;;;;;;;21.00;5.13;;;40.60;36.30;;;;;;5050200;28;20037;-80
2021/06/25 09:54:15;;;;;;;17.17;4.78;;;40.70;36.00;;;;;;5050398;28;20029;-80
2021/06/25 09:56:58;;;;;;;28.73;5.38;;;41.00;35.60;;;;;;5050262;28;20052;-80
2021/06/25 10:02:18;;;;;;;24.83;5.35;;;40.50;35.40;;;;;;5049963;28;20040;-80
2021/06/25 10:04:55;;;;;;;19.20;4.45;;;40.40;35.60;;;;;;5050096;28;20035;-80
2021/06/25 10:07:25;;;;;;;10.38;4.20;;;39.90;36.10;;;;;;5050245;28;20386;-80
2021/06/25 10:09:52;;;;;;;19.80;5.03;;;39.50;36.90;;;;;;5048742;28;20041;-80
2021/06/25 10:12:19;;;;;;;17.13;4.35;;;38.90;37.70;;;;;;5049865;28;20116;-80
2021/06/25 10:14:46;;;;;;;10.52;3.67;;;38.30;38.10;;;;;;5031899;28;20036;-79
2021/06/25 10:17:13;;;;;;;13.73;4.40;;;37.90;36.90;;;;;;5031918;28;20017;-80
2021/06/25 10:19:44;;;;;;;18.83;4.05;;;37.80;38.70;;;;;;5031870;28;20520;-80
2021/06/25 10:22:11;;;;;;;17.77;4.07;;;37.60;39.00;;;;;;5049765;28;20064;-79
2021/06/25 10:24:39;;;;;;;20.23;3.80;;;37.40;38.40;;;;;;5031871;28;20512;-79
2021/06/25 10:27:06;;;;;;;16.80;3.90;;;37.20;38.40;;;;;;5049662;28;20033;-79
2021/06/25 10:29:33;;;;;;;16.50;4.20;;;37.00;38.40;;;;;;5031723;28;20049;-80
2021/06/25 10:32:01;;;;;;;12.25;3.97;;;36.90;39.20;;;;;;5031788;28;20053;-80
2021/06/25 10:34:36;;;;;;;11.80;3.78;;;36.90;39.40;;;;;;5049673;28;20053;-80
2021/06/25 10:37:05;;;;;;;15.32;3.42;;;36.70;39.70;;;;;;5049528;28;20082;-80
2021/06/25 10:39:33;;;;;;;17.88;3.58;;;36.70;39.20;;;;;;5049410;28;20036;-81
2021/06/25 10:42:02;;;;;;;16.30;3.00;;;36.40;39.50;;;;;;5031624;28;20040;-79
2021/06/25 10:44:35;;;;;;;14.88;3.17;;;36.30;40.90;;;;;;5031524;28;20112;-80
2021/06/25 10:47:17;;;;;;;9.00;2.75;;;36.30;40.30;;;;;;5049333;28;20025;-79
2021/06/25 10:50:18;;;;;;;7.72;2.60;;;36.20;39.60;;;;;;5049335;28;20452;-80
2021/06/25 10:53:08;;;;;;;13.70;3.58;;;36.20;40.60;;;;;;5041998;28;20045;-79
2021/06/25 10:55:33;;;;;;;7.97;2.65;;;36.10;40.50;;;;;;5030671;28;20032;-80
2021/06/25 10:57:59;;;;;;;14.38;3.25;;;35.90;40.20;;;;;;5049346;28;20029;-79
2021/06/25 11:00:53;;;;;;;8.52;3.22;;;35.90;40.80;;;;;;5031339;28;20021;-79
2021/06/25 11:03:29;;;;;;;14.30;2.90;;;35.80;41.80;;;;;;5044205;28;20044;-80
2021/06/25 11:05:55;;;;;;;9.40;3.35;;;35.70;42.20;;;;;;5031298;28;20469;-80
2021/06/25 11:08:21;;;;;;;11.18;2.80;;;35.60;42.20;;;;;;5031302;28;20072;-80
2021/06/25 11:10:56;;;;;;;11.98;2.58;;;35.50;41.90;;;;;;5049030;28;20052;-80
2021/06/25 11:13:25;;;;;;;8.32;2.45;;;35.40;42.40;;;;;;5049298;28;20560;-80
2021/06/25 11:15:53;;;;;;;10.95;3.00;;;35.40;42.20;;;;;;5031235;28;20041;-81
2021/06/25 11:18:20;;;;;;;13.48;2.65;;;35.40;41.20;;;;;;5048862;28;20035;-80
2021/06/25 11:20:57;;;;;;;10.20;2.20;;;35.20;41.90;;;;;;5049018;28;20429;-80
2021/06/25 11:23:28;;;;;;;13.13;2.35;;;35.10;41.60;;;;;;5049211;28;20432;-80
2021/06/25 11:25:55;;;;;;;11.18;2.70;;;35.00;41.60;;;;;;5049114;28;20628;-80
2021/06/25 11:28:24;;;;;;;6.22;2.80;;;35.00;42.00;;;;;;5031090;28;20124;-80
2021/06/25 11:31:03;;;;;;;7.10;2.60;;;35.10;40.80;;;;;;5048717;28;20513;-81
2021/06/25 11:33:38;;;;;;;10.88;2.20;;;35.00;41.40;;;;;;5031119;28;20028;-80
2021/06/25 11:36:24;;;;;;;10.15;2.05;;;34.90;41.10;;;;;;5031079;28;20068;-77
2021/06/25 11:38:56;;;;;;;9.40;2.42;;;34.90;40.70;;;;;;5048865;28;20028;-80
2021/06/25 11:41:36;;;;;;;8.48;2.35;;;34.90;40.90;;;;;;5030871;28;20404;-80
2021/06/25 11:44:22;;;;;;;9.98;2.72;;;34.90;40.60;;;;;;5048797;28;20401;-79
2021/06/25 11:47:00;;;;;;;11.38;2.10;;;34.90;41.10;;;;;;5047533;28;20029;-80
2021/06/25 11:49:34;;;;;;;8.88;1.98;;;34.80;40.40;;;;;;5048876;28;20021;-80
2021/06/25 11:52:07;;;;;;;12.23;2.00;;;34.80;41.20;;;;;;5030894;28;20041;-80
2021/06/25 11:54:35;;;;;;;5.53;2.08;;;34.90;39.30;;;;;;5047416;28;20021;-80
2021/06/25 11:57:00;;;;;;;10.35;2.35;;;34.90;40.00;;;;;;5030889;28;20033;-77
2021/06/25 11:59:26;;;;;;;7.78;2.13;;;34.90;40.50;;;;;;5048989;28;20539;-77
2021/06/25 12:02:01;;;;;;;12.10;2.28;;;34.90;39.90;;;;;;5031239;28;20529;-77
2021/06/25 12:04:50;;;;;;;8.43;2.10;;;34.90;39.30;;;;;;5047741;28;20032;-77
2021/06/25 12:07:18;;;;;;;6.57;2.20;;;34.90;38.70;;;;;;5049714;28;20081;-78
2021/06/25 12:09:50;;;;;;;8.77;1.70;;;34.80;39.30;;;;;;5052774;28;20021;-77
2021/06/25 12:12:25;;;;;;;9.65;1.75;;;34.70;40.00;;;;;;5034310;28;20025;-78
2021/06/25 12:15:03;;;;;;;9.77;2.00;;;34.60;38.80;;;;;;5034277;28;20021;-77
2021/06/25 12:17:50;;;;;;;19.23;1.73;;;34.60;39.20;;;;;;5051054;28;20079;-77
2021/06/25 12:20:30;;;;;;;7.10;1.48;;;34.50;38.60;;;;;;5034321;28;20402;-77
2021/06/25 12:22:57;;;;;;;9.32;2.10;;;34.40;38.80;;;;;;5052344;28;20120;-78
2021/06/25 12:25:40;;;;;;;8.13;1.60;;;34.40;39.40;;;;;;5036424;28;20021;-77
2021/06/25 12:28:28;;;;;;;6.13;1.50;;;34.40;38.10;;;;;;5062468;28;20467;-76
2021/06/25 12:31:03;;;;;;;5.07;1.42;;;34.40;37.20;;;;;;5053799;28;20052;-78
2021/06/25 12:33:32;;;;;;;8.68;1.75;;;34.40;37.90;;;;;;5053948;28;20170;-77
2021/06/25 12:36:01;;;;;;;5.22;1.52;;;34.40;37.80;;;;;;5053853;28;20029;-77
2021/06/25 12:38:28;;;;;;;7.70;1.83;;;34.40;38.10;;;;;;5053817;28;20028;-77
2021/06/25 12:40:58;;;;;;;3.50;1.48;;;34.40;38.30;;;;;;5054039;28;20122;-77
2021/06/25 12:43:30;;;;;;;6.00;1.75;;;34.40;38.30;;;;;;5053911;28;20481;-79
2021/06/25 12:45:59;;;;;;;8.35;1.60;;;34.40;39.10;;;;;;5053761;28;20128;-80
2021/06/25 12:48:26;;;;;;;9.35;1.83;;;34.40;41.00;;;;;;5052954;28;20036;-79
2021/06/25 12:51:19;;;;;;;5.20;2.08;;;34.40;40.50;;;;;;5071378;28;20031;-76
2021/06/25 12:53:49;;;;;;;3.47;1.85;;;34.40;39.90;;;;;;5067380;28;20029;-76
2021/06/25 12:56:18;;;;;;;5.80;1.98;;;34.50;38.70;;;;;;5052675;28;20052;-77